ETD4TR EGCC-EGLL
Flight info
| Callsign | ETD4TR |
|---|---|
| Flight time | N/A |
| Altitude | 37000 |
| Route | SONEX L975 DESIG L603 DOLAS DCT NAVPI BARMI |
| Aircraft | A35K/H-SDE2E3GHIJ3J4J5LM1ORWXY/LB1D1 |
Departure
| Time | N/A |
|---|---|
| Airport | Manchester Airport (EGCC) |
Arrival
| Time | 2026-05-05 00:46 |
|---|---|
| Airport | London Heathrow Airport (EGLL) |
| Time | Latitude | Longitude | Altitude | Speed | Heading |
|---|---|---|---|---|---|
| 2026-05-05 00:03 | 53.20792 | -0.20304 | 33897 ft | 475 kts | 107° |
| 2026-05-05 00:04 | 53.19741 | -0.15084 | 34328 ft | 475 kts | 107° |
| 2026-05-05 00:04 | 53.18701 | -0.09936 | 34636 ft | 476 kts | 107° |
| 2026-05-05 00:04 | 53.17641 | -0.04696 | 34922 ft | 477 kts | 107° |
| 2026-05-05 00:04 | 53.16575 | 0.00554 | 35213 ft | 479 kts | 108° |
| 2026-05-05 00:05 | 53.15503 | 0.05818 | 35479 ft | 481 kts | 108° |
| 2026-05-05 00:05 | 53.14405 | 0.11087 | 35762 ft | 482 kts | 110° |
| 2026-05-05 00:05 | 53.13255 | 0.16328 | 36029 ft | 483 kts | 111° |
| 2026-05-05 00:05 | 53.12086 | 0.21592 | 36290 ft | 484 kts | 113° |
| 2026-05-05 00:06 | 53.10882 | 0.26831 | 36504 ft | 486 kts | 114° |
| 2026-05-05 00:06 | 53.09678 | 0.32099 | 36703 ft | 487 kts | 113° |
| 2026-05-05 00:06 | 53.08503 | 0.37388 | 36958 ft | 487 kts | 113° |
| 2026-05-05 00:07 | 53.06227 | 0.48040 | 37040 ft | 489 kts | 112° |
| 2026-05-05 00:07 | 53.03996 | 0.58751 | 37040 ft | 490 kts | 112° |
| 2026-05-05 00:08 | 53.01663 | 0.69390 | 37041 ft | 490 kts | 116° |
| 2026-05-05 00:08 | 52.98989 | 0.79719 | 37040 ft | 490 kts | 120° |
| 2026-05-05 00:09 | 52.96062 | 0.89931 | 36981 ft | 493 kts | 114° |
| 2026-05-05 00:09 | 52.94830 | 0.95236 | 37085 ft | 492 kts | 118° |
| 2026-05-05 00:09 | 52.93482 | 1.00438 | 37046 ft | 490 kts | 118° |
| 2026-05-05 00:10 | 52.90861 | 1.10924 | 37043 ft | 494 kts | 116° |
| 2026-05-05 00:10 | 52.88501 | 1.21639 | 37044 ft | 495 kts | 114° |
| 2026-05-05 00:11 | 52.86282 | 1.32423 | 37043 ft | 494 kts | 114° |
| 2026-05-05 00:11 | 52.84079 | 1.43208 | 37043 ft | 494 kts | 114° |
| 2026-05-05 00:12 | 52.81593 | 1.53740 | 36931 ft | 489 kts | 124° |
| 2026-05-05 00:12 | 52.79939 | 1.58670 | 36559 ft | 492 kts | 125° |
| 2026-05-05 00:12 | 52.78279 | 1.63560 | 36167 ft | 494 kts | 124° |
| 2026-05-05 00:12 | 52.76615 | 1.68530 | 35746 ft | 495 kts | 124° |
| 2026-05-05 00:13 | 52.74941 | 1.73577 | 35271 ft | 494 kts | 124° |
| 2026-05-05 00:13 | 52.73300 | 1.78559 | 34843 ft | 494 kts | 124° |
| 2026-05-05 00:13 | 52.71662 | 1.83548 | 34411 ft | 494 kts | 123° |
| 2026-05-05 00:13 | 52.70045 | 1.88468 | 33983 ft | 494 kts | 123° |
| 2026-05-05 00:14 | 52.68141 | 1.93136 | 33473 ft | 488 kts | 135° |
| 2026-05-05 00:14 | 52.65823 | 1.97170 | 32927 ft | 484 kts | 143° |
| 2026-05-05 00:14 | 52.63182 | 2.00573 | 32371 ft | 483 kts | 152° |
| 2026-05-05 00:14 | 52.60263 | 2.03293 | 31907 ft | 482 kts | 161° |
| 2026-05-05 00:15 | 52.57147 | 2.05344 | 31516 ft | 481 kts | 168° |
| 2026-05-05 00:15 | 52.53926 | 2.06893 | 31108 ft | 483 kts | 171° |
| 2026-05-05 00:15 | 52.50670 | 2.08354 | 30722 ft | 486 kts | 171° |
| 2026-05-05 00:15 | 52.47408 | 2.09811 | 30334 ft | 487 kts | 171° |
| 2026-05-05 00:16 | 52.44143 | 2.11278 | 30071 ft | 488 kts | 171° |
| 2026-05-05 00:16 | 52.40868 | 2.12750 | 29946 ft | 488 kts | 171° |
| 2026-05-05 00:16 | 52.37587 | 2.14220 | 29821 ft | 487 kts | 171° |
| 2026-05-05 00:16 | 52.34317 | 2.15680 | 29639 ft | 486 kts | 171° |
| 2026-05-05 00:17 | 52.31055 | 2.17131 | 29269 ft | 484 kts | 171° |
| 2026-05-05 00:17 | 52.27844 | 2.18559 | 28556 ft | 483 kts | 170° |
| 2026-05-05 00:17 | 52.24616 | 2.20005 | 28035 ft | 479 kts | 169° |
| 2026-05-05 00:17 | 52.21413 | 2.21435 | 27571 ft | 475 kts | 169° |
| 2026-05-05 00:18 | 52.18227 | 2.22848 | 27124 ft | 472 kts | 170° |
| 2026-05-05 00:18 | 52.15030 | 2.23874 | 26706 ft | 465 kts | 179° |
| 2026-05-05 00:18 | 52.11829 | 2.23876 | 26278 ft | 457 kts | 191° |
| 2026-05-05 00:18 | 52.08735 | 2.22774 | 25853 ft | 452 kts | 203° |
| 2026-05-05 00:19 | 52.05890 | 2.20666 | 25484 ft | 449 kts | 215° |
| 2026-05-05 00:19 | 52.03384 | 2.17660 | 25244 ft | 447 kts | 226° |
| 2026-05-05 00:19 | 52.01318 | 2.13912 | 25061 ft | 446 kts | 237° |
| 2026-05-05 00:19 | 51.99770 | 2.09571 | 25024 ft | 445 kts | 249° |
| 2026-05-05 00:20 | 51.98481 | 2.04982 | 25009 ft | 450 kts | 245° |
| 2026-05-05 00:20 | 51.96793 | 2.00663 | 24977 ft | 455 kts | 235° |
| 2026-05-05 00:20 | 51.94775 | 1.96718 | 24702 ft | 452 kts | 232° |
| 2026-05-05 00:20 | 51.92704 | 1.92911 | 24325 ft | 449 kts | 231° |
| 2026-05-05 00:21 | 51.90662 | 1.89180 | 23968 ft | 448 kts | 231° |
| 2026-05-05 00:21 | 51.88602 | 1.85420 | 23578 ft | 446 kts | 232° |
| 2026-05-05 00:21 | 51.86549 | 1.81674 | 23149 ft | 444 kts | 232° |
| 2026-05-05 00:21 | 51.84507 | 1.77947 | 22712 ft | 442 kts | 231° |
| 2026-05-05 00:22 | 51.82475 | 1.74251 | 22278 ft | 438 kts | 231° |
| 2026-05-05 00:22 | 51.80450 | 1.70565 | 21858 ft | 436 kts | 231° |
| 2026-05-05 00:22 | 51.78444 | 1.66913 | 21422 ft | 435 kts | 231° |
| 2026-05-05 00:22 | 51.76581 | 1.63083 | 21039 ft | 432 kts | 239° |
| 2026-05-05 00:23 | 51.75271 | 1.58753 | 20635 ft | 428 kts | 254° |
| 2026-05-05 00:23 | 51.74636 | 1.54076 | 20201 ft | 427 kts | 265° |
| 2026-05-05 00:23 | 51.74321 | 1.49301 | 19693 ft | 428 kts | 267° |
| 2026-05-05 00:23 | 51.74042 | 1.44512 | 19206 ft | 428 kts | 266° |
| 2026-05-05 00:24 | 51.73751 | 1.39739 | 18729 ft | 427 kts | 266° |
| 2026-05-05 00:24 | 51.73452 | 1.34987 | 18245 ft | 425 kts | 266° |
| 2026-05-05 00:24 | 51.73146 | 1.30259 | 17716 ft | 422 kts | 266° |
| 2026-05-05 00:24 | 51.72837 | 1.25569 | 17181 ft | 419 kts | 266° |
| 2026-05-05 00:25 | 51.72530 | 1.20961 | 16662 ft | 416 kts | 266° |
| 2026-05-05 00:25 | 51.72221 | 1.16338 | 16157 ft | 414 kts | 266° |
| 2026-05-05 00:25 | 51.71911 | 1.11743 | 15653 ft | 411 kts | 266° |
| 2026-05-05 00:25 | 51.71601 | 1.07176 | 15187 ft | 409 kts | 266° |
| 2026-05-05 00:26 | 51.71290 | 1.02637 | 14771 ft | 406 kts | 266° |
| 2026-05-05 00:26 | 51.70981 | 0.98118 | 14359 ft | 404 kts | 266° |
| 2026-05-05 00:26 | 51.70673 | 0.93629 | 13959 ft | 402 kts | 266° |
| 2026-05-05 00:26 | 51.70367 | 0.89162 | 13520 ft | 400 kts | 266° |
| 2026-05-05 00:27 | 51.70054 | 0.84731 | 13070 ft | 396 kts | 266° |
| 2026-05-05 00:27 | 51.69742 | 0.80339 | 12626 ft | 392 kts | 266° |
| 2026-05-05 00:27 | 51.69432 | 0.75986 | 12176 ft | 389 kts | 266° |
| 2026-05-05 00:27 | 51.69126 | 0.71678 | 11760 ft | 385 kts | 266° |
| 2026-05-05 00:28 | 51.68820 | 0.67405 | 11334 ft | 381 kts | 266° |
| 2026-05-05 00:28 | 51.68521 | 0.63182 | 10913 ft | 378 kts | 266° |
| 2026-05-05 00:28 | 51.68220 | 0.59011 | 10499 ft | 369 kts | 266° |
| 2026-05-05 00:28 | 51.67929 | 0.54959 | 10098 ft | 357 kts | 266° |
| 2026-05-05 00:29 | 51.67656 | 0.51064 | 9676 ft | 344 kts | 267° |
| 2026-05-05 00:29 | 51.67396 | 0.47293 | 9243 ft | 333 kts | 268° |
| 2026-05-05 00:29 | 51.67144 | 0.43624 | 8808 ft | 324 kts | 268° |
| 2026-05-05 00:29 | 51.66892 | 0.40077 | 8381 ft | 315 kts | 268° |
| 2026-05-05 00:30 | 51.66646 | 0.36629 | 8073 ft | 302 kts | 269° |
| 2026-05-05 00:30 | 51.66472 | 0.33362 | 8018 ft | 282 kts | 272° |
| 2026-05-05 00:30 | 51.66357 | 0.30311 | 8004 ft | 274 kts | 272° |
| 2026-05-05 00:30 | 51.66260 | 0.27232 | 7998 ft | 274 kts | 272° |
| 2026-05-05 00:31 | 51.66170 | 0.24149 | 7998 ft | 275 kts | 273° |
| 2026-05-05 00:31 | 51.66079 | 0.21163 | 7999 ft | 257 kts | 272° |
| 2026-05-05 00:31 | 51.65974 | 0.18387 | 8003 ft | 244 kts | 272° |
| 2026-05-05 00:31 | 51.65859 | 0.15670 | 8000 ft | 243 kts | 271° |
| 2026-05-05 00:32 | 51.65740 | 0.12961 | 7997 ft | 242 kts | 272° |
| 2026-05-05 00:32 | 51.65617 | 0.10265 | 7994 ft | 242 kts | 271° |
| 2026-05-05 00:32 | 51.65496 | 0.07590 | 7996 ft | 242 kts | 271° |
| 2026-05-05 00:32 | 51.65371 | 0.04895 | 7995 ft | 241 kts | 271° |
| 2026-05-05 00:33 | 51.65244 | 0.02192 | 7993 ft | 241 kts | 271° |
| 2026-05-05 00:33 | 51.65118 | -0.00498 | 8018 ft | 241 kts | 271° |
| 2026-05-05 00:33 | 51.64995 | -0.03204 | 8013 ft | 242 kts | 271° |
| 2026-05-05 00:33 | 51.64874 | -0.05907 | 8017 ft | 242 kts | 271° |
| 2026-05-05 00:34 | 51.64755 | -0.08625 | 8017 ft | 242 kts | 271° |
| 2026-05-05 00:34 | 51.64636 | -0.11324 | 8016 ft | 242 kts | 271° |
| 2026-05-05 00:34 | 51.64517 | -0.14035 | 7776 ft | 242 kts | 271° |
| 2026-05-05 00:34 | 51.64399 | -0.16707 | 7345 ft | 242 kts | 271° |
| 2026-05-05 00:35 | 51.64273 | -0.19388 | 7070 ft | 237 kts | 271° |
| 2026-05-05 00:35 | 51.64143 | -0.22030 | 7018 ft | 237 kts | 271° |
| 2026-05-05 00:35 | 51.64012 | -0.24674 | 7018 ft | 237 kts | 271° |
| 2026-05-05 00:35 | 51.63881 | -0.27311 | 7020 ft | 236 kts | 271° |
| 2026-05-05 00:36 | 51.63749 | -0.29956 | 6994 ft | 236 kts | 271° |
| 2026-05-05 00:36 | 51.63619 | -0.32590 | 6993 ft | 236 kts | 271° |
| 2026-05-05 00:36 | 51.63533 | -0.34335 | 6993 ft | 236 kts | 271° |
| 2026-05-05 00:36 | 51.63402 | -0.36971 | 6993 ft | 236 kts | 271° |
| 2026-05-05 00:37 | 51.63272 | -0.39612 | 6992 ft | 237 kts | 271° |
| 2026-05-05 00:37 | 51.63143 | -0.42250 | 6991 ft | 236 kts | 271° |
| 2026-05-05 00:37 | 51.63013 | -0.44894 | 7001 ft | 237 kts | 271° |
| 2026-05-05 00:37 | 51.62883 | -0.47531 | 6991 ft | 237 kts | 271° |
| 2026-05-05 00:38 | 51.62754 | -0.50176 | 6819 ft | 237 kts | 271° |
| 2026-05-05 00:38 | 51.62623 | -0.52804 | 6463 ft | 235 kts | 271° |
| 2026-05-05 00:38 | 51.62486 | -0.55412 | 6074 ft | 233 kts | 271° |
| 2026-05-05 00:38 | 51.62344 | -0.58011 | 5691 ft | 232 kts | 271° |
| 2026-05-05 00:39 | 51.62197 | -0.60590 | 5315 ft | 231 kts | 271° |
| 2026-05-05 00:39 | 51.62045 | -0.63163 | 4940 ft | 230 kts | 271° |
| 2026-05-05 00:39 | 51.61891 | -0.65724 | 4549 ft | 229 kts | 271° |
| 2026-05-05 00:39 | 51.61735 | -0.68275 | 4164 ft | 228 kts | 271° |
| 2026-05-05 00:40 | 51.61552 | -0.70808 | 3990 ft | 231 kts | 265° |
| 2026-05-05 00:40 | 51.60928 | -0.73195 | 3987 ft | 239 kts | 242° |
| 2026-05-05 00:40 | 51.59739 | -0.75069 | 3992 ft | 243 kts | 219° |
| 2026-05-05 00:40 | 51.58176 | -0.76089 | 3997 ft | 244 kts | 198° |
| 2026-05-05 00:41 | 51.56562 | -0.76394 | 4006 ft | 224 kts | 189° |
| 2026-05-05 00:41 | 51.55028 | -0.76446 | 3915 ft | 218 kts | 186° |
| 2026-05-05 00:41 | 51.53515 | -0.76442 | 3533 ft | 219 kts | 185° |
| 2026-05-05 00:41 | 51.51977 | -0.76430 | 3121 ft | 221 kts | 185° |
| 2026-05-05 00:42 | 51.50480 | -0.76202 | 2988 ft | 216 kts | 166° |
| 2026-05-05 00:42 | 51.49181 | -0.75024 | 2937 ft | 216 kts | 140° |
| 2026-05-05 00:42 | 51.48202 | -0.73222 | 2630 ft | 212 kts | 129° |
| 2026-05-05 00:42 | 51.47404 | -0.71339 | 2532 ft | 196 kts | 126° |
| 2026-05-05 00:43 | 51.46687 | -0.69508 | 2494 ft | 192 kts | 125° |
| 2026-05-05 00:43 | 51.46064 | -0.67612 | 2477 ft | 195 kts | 110° |
| 2026-05-05 00:43 | 51.45856 | -0.65496 | 2497 ft | 191 kts | 95° |
| 2026-05-05 00:43 | 51.45980 | -0.63381 | 2488 ft | 189 kts | 84° |
| 2026-05-05 00:44 | 51.46153 | -0.61390 | 2275 ft | 173 kts | 88° |
| 2026-05-05 00:44 | 51.46310 | -0.59509 | 1952 ft | 168 kts | 87° |
| 2026-05-05 00:44 | 51.46418 | -0.57693 | 1596 ft | 163 kts | 90° |
| 2026-05-05 00:44 | 51.46452 | -0.55896 | 1201 ft | 155 kts | 94° |
| 2026-05-05 00:45 | 51.46431 | -0.54224 | 940 ft | 148 kts | 93° |
| 2026-05-05 00:45 | 51.46463 | -0.52586 | 735 ft | 147 kts | 93° |
| 2026-05-05 00:45 | 51.46470 | -0.50950 | 518 ft | 147 kts | 95° |
| 2026-05-05 00:45 | 51.46477 | -0.49314 | 251 ft | 146 kts | 91° |
| 2026-05-05 00:46 | 51.46486 | -0.47700 | 99 ft | 139 kts | 89° |
| 2026-05-05 00:46 | 51.46486 | -0.46497 | 102 ft | 68 kts | 90° |
| 2026-05-05 00:46 | 51.46493 | -0.45998 | 95 ft | 28 kts | 79° |
| 2026-05-05 00:46 | 51.46544 | -0.45755 | 96 ft | 21 kts | 64° |
| 2026-05-05 00:47 | 51.46556 | -0.45722 | 96 ft | 2 kts | 57° |
| 2026-05-05 00:47 | 51.46573 | -0.45696 | 97 ft | 4 kts | 37° |
| 2026-05-05 00:47 | 51.46587 | -0.45683 | 94 ft | 0 kts | 32° |
| 2026-05-05 00:47 | 51.46596 | -0.45673 | 96 ft | 3 kts | 32° |
| 2026-05-05 00:48 | 51.46622 | -0.45645 | 97 ft | 6 kts | 36° |
| 2026-05-05 00:48 | 51.46654 | -0.45578 | 96 ft | 9 kts | 71° |
| 2026-05-05 00:48 | 51.46662 | -0.45459 | 93 ft | 12 kts | 89° |
| 2026-05-05 00:48 | 51.46663 | -0.45314 | 98 ft | 14 kts | 89° |
| 2026-05-05 00:49 | 51.46664 | -0.45154 | 101 ft | 15 kts | 90° |
| 2026-05-05 00:49 | 51.46664 | -0.44976 | 100 ft | 17 kts | 89° |
| 2026-05-05 00:49 | 51.46659 | -0.44713 | 103 ft | 7 kts | 117° |
| 2026-05-05 00:49 | 51.46647 | -0.44710 | 101 ft | 1 kts | 178° |
| 2026-05-05 00:50 | 51.46646 | -0.44710 | 101 ft | 0 kts | 179° |
| 2026-05-05 00:51 | 51.46641 | -0.44710 | 102 ft | 0 kts | 180° |
| 2026-05-05 00:52 | 51.46628 | -0.44718 | 102 ft | 11 kts | 201° |
| 2026-05-05 00:52 | 51.46526 | -0.44847 | 103 ft | 22 kts | 220° |
| 2026-05-05 00:52 | 51.46422 | -0.44991 | 101 ft | 11 kts | 221° |
| 2026-05-05 00:53 | 51.46388 | -0.45039 | 98 ft | 0 kts | 223° |
| 2026-05-05 00:55 | 51.46351 | -0.45053 | 98 ft | 14 kts | 178° |
| 2026-05-05 00:56 | 51.46322 | -0.45002 | 99 ft | 8 kts | 101° |
| 2026-05-05 00:56 | 51.46317 | -0.44873 | 98 ft | 15 kts | 91° |
| 2026-05-05 00:56 | 51.46292 | -0.44742 | 98 ft | 13 kts | 156° |
| 2026-05-05 00:56 | 51.46197 | -0.44813 | 96 ft | 15 kts | 198° |
| 2026-05-05 00:57 | 51.46184 | -0.44808 | 94 ft | 1 kts | 152° |
| 2026-05-05 00:57 | 51.46157 | -0.44774 | 94 ft | 13 kts | 136° |
| 2026-05-05 00:57 | 51.46131 | -0.44729 | 95 ft | 1 kts | 132° |
| 2026-05-05 00:57 | 51.46128 | -0.44723 | 95 ft | 0 kts | 132° |